Time;durP1;ratioP1;P1;durP2;ratioP2;P2;SDS_P1;SDS_P2;PMS_P1;PMS_P2;Temp;Humidity;BMP_temperature;BMP_pressure;BME280_temperature;BME280_humidity;BME280_pressure;Samples;Min_cycle;Max_cycle;Signal;HPM_P1;HPM_P2
2024/04/04 00:00:14;;;;;;;4.57;3.63;;;;;;;10.79;100.00;100453.84;6112485;28;20240;-72
2024/04/04 00:03:34;;;;;;;4.23;3.83;;;;;;;10.83;100.00;100454.38;6128532;28;20246;-72
2024/04/04 00:06:57;;;;;;;4.13;3.83;;;;;;;10.85;100.00;100458.63;6127211;28;20633;-72
2024/04/04 00:10:20;;;;;;;4.23;3.87;;;;;;;10.82;100.00;100453.56;6117027;28;20368;-72
2024/04/04 00:13:40;;;;;;;4.70;4.40;;;;;;;10.78;100.00;100454.00;6130922;28;20227;-72
2024/04/04 00:17:01;;;;;;;4.53;4.13;;;;;;;10.77;100.00;100454.97;6125315;28;21117;-72
2024/04/04 00:20:22;;;;;;;5.80;5.33;;;;;;;10.86;100.00;100454.94;6108102;28;20750;-72
2024/04/04 00:23:44;;;;;;;5.07;4.70;;;;;;;10.86;100.00;100452.25;6126296;28;20235;-72
2024/04/04 00:27:06;;;;;;;5.17;4.67;;;;;;;10.91;100.00;100455.34;6108776;28;20589;-73
2024/04/04 00:30:26;;;;;;;5.33;4.83;;;;;;;10.94;100.00;100459.59;6119542;28;20238;-73
2024/04/04 00:33:47;;;;;;;5.87;5.47;;;;;;;10.98;100.00;100455.59;6126201;28;20310;-73
2024/04/04 00:37:08;;;;;;;5.67;5.27;;;;;;;10.94;100.00;100455.06;6123454;28;20292;-74
2024/04/04 00:40:36;;;;;;;5.47;4.97;;;;;;;10.97;100.00;100445.81;6120273;28;20534;-72
2024/04/04 00:43:57;;;;;;;7.60;6.33;;;;;;;10.97;100.00;100451.22;6138386;28;20231;-72
2024/04/04 00:47:18;;;;;;;6.10;5.50;;;;;;;10.98;100.00;100459.16;6119361;28;20227;-73
2024/04/04 00:50:41;;;;;;;8.93;5.50;;;;;;;10.92;100.00;100464.28;6107973;28;20900;-72
2024/04/04 00:54:01;;;;;;;7.73;7.13;;;;;;;10.88;100.00;100473.66;6127513;28;22494;-73
2024/04/04 00:57:23;;;;;;;6.70;5.97;;;;;;;10.79;100.00;100459.22;6125888;28;20321;-73
2024/04/04 01:00:44;;;;;;;7.63;7.03;;;;;;;10.76;100.00;100467.63;6104270;28;20582;-73
2024/04/04 01:04:04;;;;;;;6.03;5.43;;;;;;;10.74;100.00;100461.53;6121315;28;20235;-72
2024/04/04 01:07:26;;;;;;;6.03;5.50;;;;;;;10.76;100.00;100472.16;6121496;28;20615;-72
2024/04/04 01:10:46;;;;;;;7.23;5.30;;;;;;;10.69;100.00;100473.72;6106825;28;20231;-72
2024/04/04 01:14:09;;;;;;;6.60;6.07;;;;;;;10.59;100.00;100472.91;6128516;28;20704;-73
2024/04/04 01:17:30;;;;;;;7.13;6.43;;;;;;;10.56;100.00;100475.88;6110957;28;20239;-72
2024/04/04 01:20:51;;;;;;;5.63;5.23;;;;;;;10.50;100.00;100474.63;6113626;28;20232;-73
2024/04/04 01:24:13;;;;;;;7.33;6.63;;;;;;;10.49;100.00;100469.41;6135508;28;20608;-72
2024/04/04 01:27:33;;;;;;;8.20;6.60;;;;;;;10.48;100.00;100479.31;6118902;28;20240;-73
2024/04/04 01:30:54;;;;;;;6.37;5.80;;;;;;;10.47;100.00;100477.63;6113324;28;20776;-72
2024/04/04 01:34:15;;;;;;;7.03;6.43;;;;;;;10.50;100.00;100468.38;6131715;28;20318;-74
2024/04/04 01:37:36;;;;;;;12.20;6.70;;;;;;;10.57;100.00;100469.53;6121246;28;20630;-73
2024/04/04 01:40:57;;;;;;;5.33;4.87;;;;;;;10.54;100.00;100478.75;6120468;28;20235;-73
2024/04/04 01:44:18;;;;;;;6.03;5.53;;;;;;;10.58;100.00;100474.75;6128588;28;20592;-73
2024/04/04 01:47:39;;;;;;;8.63;6.90;;;;;;;10.59;100.00;100473.78;6107000;28;20327;-72
2024/04/04 01:50:59;;;;;;;6.07;5.57;;;;;;;10.56;100.00;100478.59;6116876;28;20795;-72
2024/04/04 01:54:21;;;;;;;10.47;6.53;;;;;;;10.54;100.00;100476.03;6125456;28;20235;-73
2024/04/04 01:57:42;;;;;;;10.60;6.93;;;;;;;10.59;100.00;100472.91;6115816;28;20223;-73
2024/04/04 02:01:03;;;;;;;6.30;5.77;;;;;;;10.54;100.00;100470.66;6117470;28;20246;-73
2024/04/04 02:04:23;;;;;;;7.07;5.30;;;;;;;10.53;100.00;100471.66;6127073;28;20322;-73
2024/04/04 02:07:44;;;;;;;6.03;5.43;;;;;;;10.53;100.00;100460.03;6121714;28;20231;-73
2024/04/04 02:11:04;;;;;;;6.33;4.87;;;;;;;10.50;100.00;100458.47;6120140;28;20326;-73
2024/04/04 02:14:26;;;;;;;6.47;5.70;;;;;;;10.48;100.00;100463.16;6120544;28;20874;-73
2024/04/04 02:17:46;;;;;;;6.40;5.30;;;;;;;10.48;100.00;100462.28;6102330;28;20260;-73
2024/04/04 02:21:08;;;;;;;4.93;4.50;;;;;;;10.48;100.00;100470.38;6116502;28;20235;-72
2024/04/04 02:24:28;;;;;;;4.77;4.23;;;;;;;10.52;100.00;100469.94;6119998;28;20236;-73
2024/04/04 02:27:49;;;;;;;5.73;5.23;;;;;;;10.54;100.00;100459.88;6116292;28;20239;-73
2024/04/04 02:31:10;;;;;;;9.23;5.23;;;;;;;10.53;100.00;100458.19;6115890;28;20227;-73
2024/04/04 02:34:32;;;;;;;5.93;4.63;;;;;;;10.47;100.00;100457.91;6124779;28;20288;-73
2024/04/04 02:37:53;;;;;;;5.13;4.33;;;;;;;10.47;100.00;100468.69;6116592;28;20227;-73
2024/04/04 02:41:13;;;;;;;5.90;3.93;;;;;;;10.46;100.00;100465.16;6117910;28;20236;-73
2024/04/04 02:44:34;;;;;;;4.70;4.00;;;;;;;10.45;100.00;100456.22;6125628;28;20238;-73
2024/04/04 02:47:56;;;;;;;7.33;5.60;;;;;;;10.45;100.00;100455.38;6113411;28;20231;-72
2024/04/04 02:51:17;;;;;;;6.73;3.70;;;;;;;10.40;100.00;100471.97;6116027;28;20236;-74
2024/04/04 02:54:37;;;;;;;4.47;4.03;;;;;;;10.41;100.00;100470.09;6124958;28;20747;-73
2024/04/04 02:58:01;;;;;;;4.13;3.73;;;;;;;10.36;100.00;100467.88;6119305;28;20617;-72
2024/04/04 03:01:22;;;;;;;4.93;3.67;;;;;;;10.36;100.00;100456.25;6111418;28;20251;-73
2024/04/04 03:04:46;;;;;;;6.73;4.43;;;;;;;10.35;100.00;100459.91;6124139;28;20281;-73
2024/04/04 03:08:07;;;;;;;4.93;3.47;;;;;;;10.33;100.00;100465.47;6129189;28;20509;-74
2024/04/04 03:11:28;;;;;;;6.23;4.93;;;;;;;10.35;100.00;100466.16;6117225;28;20223;-73
2024/04/04 03:14:48;;;;;;;8.33;4.97;;;;;;;10.39;100.00;100466.72;6122418;28;20255;-73
2024/04/04 03:18:09;;;;;;;3.57;3.10;;;;;;;10.40;100.00;100473.81;6120781;28;20258;-73
2024/04/04 03:21:31;;;;;;;4.77;3.70;;;;;;;10.35;100.00;100465.31;6125479;28;20310;-73
2024/04/04 03:24:51;;;;;;;4.17;3.73;;;;;;;10.37;100.00;100466.88;6126392;28;20235;-73
2024/04/04 03:28:12;;;;;;;6.43;5.17;;;;;;;10.36;100.00;100467.03;6124095;28;20231;-73
2024/04/04 03:31:31;;;;;;;4.33;3.83;;;;;;;10.41;100.00;100462.88;6120942;28;20259;-73
2024/04/04 03:34:52;;;;;;;6.43;3.87;;;;;;;10.33;100.00;100460.06;6126196;28;20243;-73
2024/04/04 03:38:15;;;;;;;3.80;3.33;;;;;;;10.33;100.00;100457.38;6125349;28;20235;-73
2024/04/04 03:41:38;;;;;;;6.47;3.67;;;;;;;10.28;100.00;100456.13;6126361;28;20270;-73
2024/04/04 03:44:59;;;;;;;4.33;3.63;;;;;;;10.28;100.00;100454.25;6127355;28;20250;-73
2024/04/04 03:48:20;;;;;;;4.43;3.97;;;;;;;10.34;100.00;100436.69;6124318;28;20235;-73
2024/04/04 03:51:41;;;;;;;4.10;3.67;;;;;;;10.32;100.00;100446.75;6121718;28;20234;-72
2024/04/04 03:55:02;;;;;;;6.23;3.70;;;;;;;10.34;100.00;100442.06;6122259;28;20613;-73
2024/04/04 03:58:23;;;;;;;4.27;3.37;;;;;;;10.30;100.00;100446.06;6126855;28;20238;-73
2024/04/04 04:01:43;;;;;;;5.43;3.57;;;;;;;10.26;100.00;100445.47;6120233;28;20254;-73
2024/04/04 04:05:06;;;;;;;10.67;4.10;;;;;;;10.26;100.00;100455.41;6123931;28;20227;-73
2024/04/04 04:08:27;;;;;;;4.83;3.63;;;;;;;10.25;100.00;100453.69;6124455;28;20235;-73
2024/04/04 04:11:49;;;;;;;5.00;3.80;;;;;;;10.25;100.00;100457.25;6124248;28;20231;-73
2024/04/04 04:15:11;;;;;;;5.33;3.50;;;;;;;10.27;100.00;100457.09;6131319;28;20259;-72
2024/04/04 04:18:31;;;;;;;5.93;3.47;;;;;;;10.23;100.00;100455.69;6125067;28;20932;-73
2024/04/04 04:21:51;;;;;;;4.50;2.87;;;;;;;10.24;100.00;100457.41;6119190;28;20263;-73
2024/04/04 04:25:12;;;;;;;4.20;3.80;;;;;;;10.18;100.00;100463.38;6107280;28;20330;-71
2024/04/04 04:28:34;;;;;;;7.83;3.70;;;;;;;10.11;100.00;100463.09;6110584;28;20223;-73
2024/04/04 04:31:56;;;;;;;4.60;3.23;;;;;;;10.05;100.00;100468.16;6115256;28;20538;-73
2024/04/04 04:35:17;;;;;;;5.33;3.17;;;;;;;10.07;100.00;100475.13;6117373;28;20239;-72
2024/04/04 04:38:37;;;;;;;2.70;2.47;;;;;;;10.02;100.00;100465.75;6121829;28;20614;-73
2024/04/04 04:41:59;;;;;;;3.67;3.13;;;;;;;9.96;100.00;100463.63;6122660;28;20251;-73
2024/04/04 04:45:21;;;;;;;4.57;2.70;;;;;;;9.91;100.00;100472.13;6118694;28;20235;-72
2024/04/04 04:48:41;;;;;;;3.57;3.13;;;;;;;9.94;100.00;100465.59;6125932;28;20250;-73
2024/04/04 04:52:02;;;;;;;4.77;2.47;;;;;;;9.97;100.00;100466.16;6042275;28;20231;-73
2024/04/04 04:55:22;;;;;;;2.93;2.63;;;;;;;10.00;100.00;100463.19;6110918;28;20239;-72
2024/04/04 05:03:24;;;;;;;6.47;2.63;;;;;;;10.05;100.00;100470.84;6066323;28;20726;-73
2024/04/04 05:06:46;;;;;;;5.70;2.83;;;;;;;10.07;100.00;100471.56;6119167;28;20227;-73
2024/04/04 05:10:07;;;;;;;3.67;2.57;;;;;;;10.10;100.00;100465.88;6123342;28;20235;-72
2024/04/04 05:13:28;;;;;;;7.10;4.53;;;;;;;10.10;100.00;100458.69;6116495;28;20235;-73
2024/04/04 05:16:49;;;;;;;8.67;3.30;;;;;;;10.13;100.00;100461.09;6116141;28;20239;-73
2024/04/04 05:20:15;;;;;;;5.40;2.57;;;;;;;10.12;100.00;100454.00;6126060;28;20238;-73
2024/04/04 05:23:36;;;;;;;2.57;2.40;;;;;;;10.14;100.00;100460.09;6137829;28;20658;-73
2024/04/04 05:26:56;;;;;;;4.53;1.90;;;;;;;10.14;100.00;100467.31;6117488;28;20671;-73
2024/04/04 05:30:17;;;;;;;3.20;1.83;;;;;;;10.12;100.00;100469.31;6097902;28;20231;-73
2024/04/04 05:33:41;;;;;;;2.77;1.90;;;;;;;10.14;100.00;100465.47;6129913;28;20329;-75
2024/04/04 05:37:03;;;;;;;3.00;2.70;;;;;;;10.12;100.00;100472.84;6126565;28;20224;-72
2024/04/04 05:40:24;;;;;;;2.67;2.27;;;;;;;10.12;100.00;100469.31;6131562;28;20625;-73
2024/04/04 05:43:45;;;;;;;3.63;2.03;;;;;;;10.17;100.00;100473.28;6128054;28;20239;-73
2024/04/04 05:47:06;;;;;;;7.03;3.00;;;;;;;10.21;100.00;100473.84;6126449;28;20235;-73
2024/04/04 05:50:27;;;;;;;2.40;2.20;;;;;;;10.37;100.00;100466.88;6126088;28;20835;-73
2024/04/04 05:53:49;;;;;;;1.97;1.53;;;;;;;10.25;100.00;100469.88;6127971;28;20266;-73
2024/04/04 05:57:10;;;;;;;3.50;2.03;;;;;;;10.21;100.00;100469.31;6125829;28;20228;-72
2024/04/04 06:00:31;;;;;;;3.73;1.80;;;;;;;10.16;100.00;100470.72;6114511;28;20257;-72
2024/04/04 06:03:52;;;;;;;3.70;2.13;;;;;;;10.14;100.00;100476.25;6135349;28;20283;-73
2024/04/04 06:07:12;;;;;;;3.43;2.30;;;;;;;10.24;100.00;100470.88;6119995;28;20239;-72
2024/04/04 06:10:35;;;;;;;2.63;2.43;;;;;;;10.10;100.00;100479.34;6109186;28;20231;-72
2024/04/04 06:13:55;;;;;;;2.33;1.90;;;;;;;10.06;100.00;100467.16;6125472;28;20231;-72
2024/04/04 06:17:16;;;;;;;7.70;2.87;;;;;;;10.17;100.00;100477.81;6104382;28;20243;-72
2024/04/04 06:20:37;;;;;;;4.97;2.90;;;;;;;10.15;100.00;100479.81;6120501;28;20232;-73
2024/04/04 06:23:58;;;;;;;3.67;2.73;;;;;;;10.22;100.00;100467.47;6120018;28;20795;-73
2024/04/04 06:27:20;;;;;;;2.00;1.80;;;;;;;10.24;100.00;100479.78;6108730;28;20239;-73
2024/04/04 06:30:40;;;;;;;3.27;1.90;;;;;;;10.28;100.00;100473.09;6100367;28;20243;-73
2024/04/04 06:34:01;;;;;;;2.63;2.20;;;;;;;10.40;100.00;100458.50;6122420;28;21581;-73
2024/04/04 06:37:24;;;;;;;4.40;2.43;;;;;;;10.43;100.00;100446.56;6113150;28;20242;-73
2024/04/04 06:40:45;;;;;;;2.77;2.13;;;;;;;10.89;100.00;100446.53;6100307;28;20580;-72
2024/04/04 06:44:08;;;;;;;2.83;1.93;;;;;;;10.72;100.00;100443.81;6117425;28;20788;-73
2024/04/04 06:47:28;;;;;;;3.63;2.53;;;;;;;10.47;100.00;100445.31;6100458;28;20251;-72
2024/04/04 06:50:49;;;;;;;1.47;1.37;;;;;;;10.49;100.00;100431.66;6109734;28;20941;-72
2024/04/04 06:54:09;;;;;;;6.53;2.40;;;;;;;10.54;100.00;100437.44;6111854;28;20767;-73
2024/04/04 06:57:30;;;;;;;2.40;1.70;;;;;;;10.55;100.00;100428.38;6121046;28;20609;-72
2024/04/04 07:00:57;;;;;;;6.40;2.20;;;;;;;10.45;100.00;100434.66;6113845;28;20318;-73
2024/04/04 07:04:17;;;;;;;4.87;2.17;;;;;;;10.35;100.00;100430.28;6120885;28;20255;-73
2024/04/04 07:07:38;;;;;;;2.90;2.30;;;;;;;10.55;100.00;100433.78;6081878;28;20331;-72
2024/04/04 07:11:00;;;;;;;2.20;1.93;;;;;;;10.46;100.00;100427.41;6116522;28;20239;-72
2024/04/04 07:14:21;;;;;;;3.73;2.07;;;;;;;10.48;100.00;100432.66;6124020;28;20239;-73
2024/04/04 07:17:42;;;;;;;3.47;1.80;;;;;;;10.53;100.00;100433.94;6118273;28;20231;-72
2024/04/04 07:21:05;;;;;;;2.67;2.10;;;;;;;10.57;100.00;100432.66;6118833;28;20239;-73
2024/04/04 07:24:25;;;;;;;6.43;3.07;;;;;;;10.96;100.00;100417.13;6127923;28;20235;-72
2024/04/04 07:27:46;;;;;;;2.43;1.50;;;;;;;11.42;100.00;100408.91;6118783;28;20618;-72
2024/04/04 07:31:06;;;;;;;5.67;1.73;;;;;;;11.37;100.00;100413.06;6106654;28;20476;-72
2024/04/04 07:34:28;;;;;;;2.90;1.83;;;;;;;11.72;100.00;100410.41;6123908;28;20521;-73
2024/04/04 07:37:50;;;;;;;4.27;2.53;;;;;;;11.70;100.00;100394.34;6107779;28;20235;-73
2024/04/04 07:41:12;;;;;;;4.40;2.47;;;;;;;11.39;100.00;100405.66;6120019;28;20232;-71
2024/04/04 07:44:33;;;;;;;4.30;1.63;;;;;;;11.07;100.00;100409.72;6136256;28;21891;-73
2024/04/04 07:47:52;;;;;;;5.13;2.93;;;;;;;11.17;100.00;100404.25;6118562;28;20244;-72
2024/04/04 07:51:17;;;;;;;2.90;2.10;;;;;;;11.37;100.00;100391.47;6120886;28;20231;-73
2024/04/04 07:54:37;;;;;;;4.03;1.60;;;;;;;11.35;100.00;100393.50;6129280;28;20239;-72
2024/04/04 07:58:00;;;;;;;4.97;2.00;;;;;;;11.34;100.00;100392.63;6127186;28;20744;-73
2024/04/04 08:01:21;;;;;;;3.47;1.83;;;;;;;11.25;100.00;100389.00;6115759;28;20373;-72
2024/04/04 08:04:42;;;;;;;2.50;2.40;;;;;;;11.06;100.00;100391.81;6114305;28;20235;-73
2024/04/04 08:08:05;;;;;;;8.00;2.67;;;;;;;10.99;100.00;100393.41;6131317;28;20250;-72
2024/04/04 08:11:27;;;;;;;5.43;2.00;;;;;;;11.08;100.00;100391.66;6113835;28;20274;-73
2024/04/04 08:14:48;;;;;;;10.87;2.33;;;;;;;11.12;100.00;100384.94;6128929;28;20263;-73
2024/04/04 08:18:09;;;;;;;2.50;2.00;;;;;;;11.12;100.00;100375.03;6127179;28;20235;-72
2024/04/04 08:21:30;;;;;;;3.93;3.13;;;;;;;11.11;100.00;100383.28;6121769;28;20235;-73
2024/04/04 08:24:52;;;;;;;3.50;2.80;;;;;;;11.22;100.00;100377.66;6115571;28;20606;-73
2024/04/04 08:28:13;;;;;;;1.60;1.47;;;;;;;10.96;100.00;100385.63;6122321;28;20227;-73
2024/04/04 08:31:34;;;;;;;10.07;2.70;;;;;;;11.09;100.00;100380.72;6127507;28;20253;-72
2024/04/04 08:34:55;;;;;;;2.87;1.53;;;;;;;11.09;100.00;100374.47;6132089;28;20231;-72
2024/04/04 08:38:16;;;;;;;3.73;1.53;;;;;;;11.23;100.00;100372.09;6121577;28;20790;-73
2024/04/04 08:41:40;;;;;;;8.23;2.70;;;;;;;11.19;100.00;100361.78;6122004;28;20238;-73
2024/04/04 08:45:03;;;;;;;2.83;1.93;;;;;;;10.97;100.00;100356.81;6128728;28;20665;-73
2024/04/04 08:48:26;;;;;;;5.90;2.07;;;;;;;10.95;100.00;100346.16;6120466;28;20314;-73
2024/04/04 08:51:48;;;;;;;4.37;1.53;;;;;;;11.05;100.00;100340.72;6119494;28;20227;-73
2024/04/04 08:55:09;;;;;;;5.07;2.30;;;;;;;11.06;100.00;100337.00;6124597;28;20258;-72
2024/04/04 08:58:31;;;;;;;3.07;1.93;;;;;;;10.84;100.00;100343.69;6127101;28;20508;-72
2024/04/04 09:01:51;;;;;;;4.03;1.87;;;;;;;10.87;100.00;100335.28;6099471;28;20318;-72
2024/04/04 09:05:12;;;;;;;3.50;1.83;;;;;;;10.77;100.00;100336.34;6108353;28;20236;-72
2024/04/04 09:08:32;;;;;;;8.17;1.80;;;;;;;10.71;100.00;100329.72;6128701;28;20243;-72
2024/04/04 09:11:54;;;;;;;2.57;1.77;;;;;;;10.87;100.00;100329.03;6115781;28;20315;-73
2024/04/04 09:15:19;;;;;;;4.67;1.73;;;;;;;10.57;100.00;100323.97;6125844;28;20242;-71
2024/04/04 09:18:40;;;;;;;7.83;2.47;;;;;;;10.61;100.00;100328.94;6127874;28;20234;-72
2024/04/04 09:22:01;;;;;;;5.77;2.80;;;;;;;10.84;100.00;100315.88;6134262;28;20255;-72
2024/04/04 09:25:21;;;;;;;2.93;1.90;;;;;;;10.85;100.00;100315.72;6124912;28;20223;-72
2024/04/04 09:28:42;;;;;;;2.50;1.70;;;;;;;10.69;100.00;100315.53;6129512;28;20562;-72
2024/04/04 09:32:07;;;;;;;2.30;1.70;;;;;;;10.54;100.00;100308.09;6132845;28;20227;-72
2024/04/04 09:35:28;;;;;;;2.37;1.90;;;;;;;10.48;100.00;100306.84;6137322;28;20235;-72
2024/04/04 09:38:49;;;;;;;1.93;1.40;;;;;;;10.56;100.00;100293.47;6128755;28;20679;-73
2024/04/04 09:42:10;;;;;;;5.23;2.13;;;;;;;10.65;100.00;100313.28;6125320;28;20697;-73
2024/04/04 09:45:31;;;;;;;4.47;1.70;;;;;;;10.51;100.00;100297.63;6124904;28;20231;-72
2024/04/04 09:48:53;;;;;;;3.30;2.40;;;;;;;10.50;100.00;100285.13;6123048;28;20239;-73
2024/04/04 09:52:17;;;;;;;1.80;1.43;;;;;;;10.49;100.00;100275.38;6107852;28;20231;-73
2024/04/04 09:55:37;;;;;;;1.60;1.50;;;;;;;10.51;100.00;100281.47;6119626;28;20247;-72
2024/04/04 09:58:59;;;;;;;6.70;2.10;;;;;;;10.63;100.00;100277.56;6130270;28;20228;-73
2024/04/04 10:02:36;;;;;;;2.67;2.47;;;;;;;10.47;100.00;100271.97;6119392;28;22097;-73
2024/04/04 10:05:58;;;;;;;3.97;2.83;;;;;;;10.42;100.00;100286.75;6123615;28;20231;-72
2024/04/04 10:09:21;;;;;;;2.77;2.33;;;;;;;10.56;100.00;100269.22;6129583;28;20251;-72
2024/04/04 10:12:43;;;;;;;6.47;3.03;;;;;;;10.60;100.00;100277.88;6121531;28;20314;-72
2024/04/04 10:16:04;;;;;;;2.90;2.37;;;;;;;10.57;100.00;100272.78;6113763;28;20235;-72
2024/04/04 10:19:26;;;;;;;3.27;2.23;;;;;;;10.49;100.00;100276.22;6126058;28;20767;-72
2024/04/04 10:22:57;;;;;;;2.37;2.17;;;;;;;10.64;100.00;100261.22;6121432;28;20240;-73
2024/04/04 10:26:18;;;;;;;3.27;2.13;;;;;;;10.68;100.00;100254.53;6111500;28;21511;-72
2024/04/04 10:29:39;;;;;;;3.13;2.43;;;;;;;10.64;100.00;100252.31;6126969;28;20626;-72
2024/04/04 10:33:06;;;;;;;4.17;2.53;;;;;;;10.54;100.00;100246.97;6117988;28;20235;-72
2024/04/04 10:36:37;;;;;;;2.63;2.43;;;;;;;10.55;100.00;100243.28;6121026;28;20239;-73
2024/04/04 10:39:59;;;;;;;4.33;1.77;;;;;;;10.66;100.00;100236.84;6118642;28;20223;-73
2024/04/04 10:43:19;;;;;;;2.00;1.80;;;;;;;10.82;100.00;100232.44;6123882;28;20249;-71
2024/04/04 10:46:43;;;;;;;7.17;2.57;;;;;;;10.86;100.00;100227.59;6116460;28;20235;-74
2024/04/04 10:50:08;;;;;;;4.30;1.77;;;;;;;10.98;100.00;100227.22;6120460;28;20317;-72
2024/04/04 10:53:29;;;;;;;2.10;1.90;;;;;;;10.97;100.00;100227.38;6108547;28;20239;-73
2024/04/04 10:56:50;;;;;;;3.40;1.60;;;;;;;10.86;100.00;100220.34;6121787;28;20223;-75
2024/04/04 11:00:13;;;;;;;2.03;1.33;;;;;;;10.65;100.00;100216.25;6109320;28;20234;-75
2024/04/04 11:03:33;;;;;;;2.63;1.70;;;;;;;10.83;100.00;100215.25;6119764;28;20231;-74
2024/04/04 11:06:54;;;;;;;2.40;1.40;;;;;;;10.91;100.00;100214.50;6114564;28;20227;-72
2024/04/04 11:10:15;;;;;;;2.13;1.53;;;;;;;10.82;100.00;100196.53;6105170;28;20243;-73
2024/04/04 11:13:39;;;;;;;1.33;1.23;;;;;;;10.90;100.00;100200.16;6123932;28;20219;-74
2024/04/04 11:17:00;;;;;;;3.27;2.03;;;;;;;10.98;100.00;100208.31;6115359;28;20227;-72
2024/04/04 11:20:20;;;;;;;1.80;1.27;;;;;;;10.96;100.00;100194.16;6116106;28;20303;-70
2024/04/04 11:23:42;;;;;;;3.97;2.00;;;;;;;10.86;100.00;100195.22;6122226;28;20230;-74
2024/04/04 11:27:02;;;;;;;1.47;1.33;;;;;;;10.89;100.00;100193.06;6116986;28;20657;-74
2024/04/04 11:30:25;;;;;;;1.67;1.50;;;;;;;11.17;100.00;100193.81;6111979;28;20231;-71
2024/04/04 11:33:46;;;;;;;1.77;1.67;;;;;;;11.13;100.00;100187.91;6130013;28;20231;-70
2024/04/04 11:37:07;;;;;;;2.53;1.30;;;;;;;11.09;100.00;100188.34;6095116;28;20554;-69
2024/04/04 11:40:28;;;;;;;2.13;0.90;;;;;;;11.15;100.00;100188.59;6119913;28;20738;-73
2024/04/04 11:43:49;;;;;;;1.80;1.70;;;;;;;11.27;100.00;100190.03;6129455;28;20318;-72
2024/04/04 11:47:10;;;;;;;1.90;1.80;;;;;;;11.18;100.00;100174.75;6111184;28;20258;-73
2024/04/04 11:50:32;;;;;;;1.63;1.53;;;;;;;11.29;100.00;100179.06;6125799;28;20231;-71
2024/04/04 11:53:53;;;;;;;2.40;1.60;;;;;;;11.35;100.00;100177.59;6128584;28;20250;-71
2024/04/04 11:57:14;;;;;;;1.10;1.10;;;;;;;11.47;100.00;100174.47;6122578;28;20312;-71
2024/04/04 12:00:34;;;;;;;9.43;2.20;;;;;;;11.48;100.00;100176.16;6116565;28;20235;-73
2024/04/04 12:03:57;;;;;;;3.10;2.33;;;;;;;11.40;100.00;100162.63;6133460;28;20227;-71
2024/04/04 12:07:18;;;;;;;1.60;1.50;;;;;;;11.45;100.00;100171.09;6135909;28;20234;-71
2024/04/04 12:10:39;;;;;;;1.80;1.70;;;;;;;11.46;100.00;100163.81;6109587;28;20238;-75
2024/04/04 12:14:00;;;;;;;1.53;1.40;;;;;;;11.52;100.00;100160.47;6134520;28;20236;-79
2024/04/04 12:17:20;;;;;;;2.10;2.00;;;;;;;11.57;100.00;100163.56;6131547;28;20842;-76
2024/04/04 12:20:42;;;;;;;10.07;1.77;;;;;;;11.56;100.00;100165.41;6113786;28;20231;-75
2024/04/04 12:24:03;;;;;;;2.07;1.53;;;;;;;11.72;100.00;100162.00;6124804;28;20629;-75
2024/04/04 12:27:24;;;;;;;4.23;2.17;;;;;;;11.62;100.00;100172.03;6120412;28;20227;-73
2024/04/04 12:30:44;;;;;;;3.10;2.47;;;;;;;11.86;100.00;100173.03;6113739;28;20582;-70
2024/04/04 12:34:05;;;;;;;3.20;2.10;;;;;;;11.91;100.00;100175.25;6123969;28;20230;-75
2024/04/04 12:37:28;;;;;;;2.57;1.77;;;;;;;11.85;100.00;100175.88;6120883;28;20262;-74
2024/04/04 12:40:49;;;;;;;2.57;2.03;;;;;;;12.11;100.00;100162.31;6119065;28;20231;-73
2024/04/04 12:44:09;;;;;;;4.87;2.60;;;;;;;12.39;100.00;100161.06;6123492;28;20247;-72
2024/04/04 12:47:30;;;;;;;2.07;1.77;;;;;;;12.57;100.00;100167.19;6108083;28;20255;-74
2024/04/04 12:50:50;;;;;;;3.03;2.10;;;;;;;12.87;100.00;100149.47;6120061;28;20612;-74
2024/04/04 12:54:13;;;;;;;1.40;1.30;;;;;;;12.70;100.00;100154.84;6121272;28;20240;-73
2024/04/04 12:57:34;;;;;;;1.67;1.37;;;;;;;12.74;100.00;100149.97;6121985;28;20801;-74
2024/04/04 13:00:58;;;;;;;1.10;1.00;;;;;;;12.61;100.00;100146.91;6105675;28;20630;-74
2024/04/04 13:04:20;;;;;;;0.80;0.80;;;;;;;12.43;100.00;100151.63;6126138;28;20243;-74
2024/04/04 13:07:42;;;;;;;1.27;0.97;;;;;;;12.47;100.00;100153.84;6117406;28;20610;-75
2024/04/04 13:11:04;;;;;;;2.43;1.80;;;;;;;12.52;100.00;100158.72;6122838;28;20235;-71
2024/04/04 13:14:24;;;;;;;1.60;1.50;;;;;;;12.46;100.00;100149.41;6125732;28;20236;-72
2024/04/04 13:17:45;;;;;;;2.93;1.33;;;;;;;12.58;100.00;100152.63;6118454;28;20232;-72
2024/04/04 13:21:05;;;;;;;1.47;1.27;;;;;;;12.49;100.00;100159.91;6126206;28;20314;-71
2024/04/04 13:24:26;;;;;;;1.20;1.00;;;;;;;12.45;100.00;100166.66;6141797;28;20235;-74
2024/04/04 13:27:47;;;;;;;0.80;0.80;;;;;;;12.45;100.00;100168.53;6121304;28;20243;-73
2024/04/04 13:31:08;;;;;;;1.23;0.93;;;;;;;12.48;100.00;100154.66;6103000;28;20240;-71
2024/04/04 13:34:29;;;;;;;0.93;0.90;;;;;;;12.48;100.00;100160.91;6125213;28;20243;-74
2024/04/04 13:37:50;;;;;;;2.00;1.10;;;;;;;12.47;100.00;100153.84;6125034;28;20251;-72
2024/04/04 13:41:10;;;;;;;1.00;0.90;;;;;;;12.42;100.00;100161.56;6120662;28;20640;-72
2024/04/04 13:44:33;;;;;;;1.70;1.17;;;;;;;12.37;100.00;100152.28;6128369;28;20286;-80
2024/04/04 13:47:53;;;;;;;2.77;1.77;;;;;;;12.41;100.00;100151.75;6116758;28;20512;-72
2024/04/04 13:51:14;;;;;;;1.23;1.10;;;;;;;12.37;100.00;100155.81;6112328;28;20227;-72
2024/04/04 13:54:35;;;;;;;1.70;1.57;;;;;;;12.40;100.00;100155.50;6123966;28;20236;-73
2024/04/04 13:57:55;;;;;;;1.40;1.30;;;;;;;12.57;100.00;100150.97;6118939;28;20323;-75
2024/04/04 14:01:18;;;;;;;8.70;1.20;;;;;;;12.64;100.00;100152.81;6120473;28;20250;-75
2024/04/04 14:04:38;;;;;;;1.30;1.20;;;;;;;12.50;100.00;100161.59;6127733;28;21121;-71
2024/04/04 14:07:59;;;;;;;1.40;1.30;;;;;;;12.36;100.00;100167.66;6121658;28;20223;-73
2024/04/04 14:11:19;;;;;;;0.97;0.97;;;;;;;12.27;100.00;100175.88;6102655;28;20236;-73
2024/04/04 14:14:40;;;;;;;1.43;1.10;;;;;;;12.18;100.00;100179.59;6124902;28;20239;-77
2024/04/04 14:18:02;;;;;;;1.10;1.10;;;;;;;12.09;100.00;100177.84;6132470;28;20235;-78
2024/04/04 14:21:22;;;;;;;1.10;1.07;;;;;;;12.05;100.00;100180.03;6107150;28;20270;-79
2024/04/04 14:24:43;;;;;;;1.20;1.17;;;;;;;12.03;100.00;100179.34;6115449;28;20633;-79
2024/04/04 14:28:05;;;;;;;1.20;1.10;;;;;;;12.04;100.00;100183.75;6118843;28;20234;-77
2024/04/04 14:31:25;;;;;;;0.93;0.90;;;;;;;12.06;100.00;100206.03;6113333;28;20243;-77
2024/04/04 14:34:47;;;;;;;1.33;0.70;;;;;;;12.14;100.00;100197.97;6124109;28;20608;-76
2024/04/04 14:38:08;;;;;;;0.70;0.70;;;;;;;12.16;100.00;100200.53;6122067;28;20232;-76
2024/04/04 14:41:29;;;;;;;1.03;0.97;;;;;;;12.23;100.00;100209.66;6123442;28;20231;-77
2024/04/04 14:44:51;;;;;;;1.93;1.07;;;;;;;12.33;100.00;100205.81;6118019;28;20767;-78
2024/04/04 14:48:11;;;;;;;1.20;1.20;;;;;;;12.34;100.00;100203.97;6122360;28;20235;-78
2024/04/04 14:51:33;;;;;;;1.40;1.30;;;;;;;12.30;100.00;100222.38;6111976;28;20219;-77
2024/04/04 14:54:54;;;;;;;1.20;1.10;;;;;;;12.27;100.00;100219.13;6125054;28;20403;-77
2024/04/04 14:58:15;;;;;;;1.87;1.47;;;;;;;12.33;100.00;100222.03;6130377;28;20326;-76
2024/04/04 15:01:35;;;;;;;1.43;1.33;;;;;;;12.27;100.00;100211.88;6126515;28;20231;-77
2024/04/04 15:04:56;;;;;;;1.63;1.40;;;;;;;12.37;100.00;100222.56;6134253;28;20243;-79
2024/04/04 15:08:18;;;;;;;1.07;1.07;;;;;;;12.38;100.00;100214.28;6124958;28;20244;-77
2024/04/04 15:11:38;;;;;;;1.30;1.20;;;;;;;12.32;100.00;100214.09;6114869;28;20243;-78
2024/04/04 15:14:59;;;;;;;1.20;1.10;;;;;;;12.30;100.00;100230.47;6119364;28;20231;-78
2024/04/04 15:18:20;;;;;;;1.70;1.13;;;;;;;12.43;100.00;100228.13;6112986;28;20231;-77
2024/04/04 15:21:41;;;;;;;1.50;1.40;;;;;;;12.40;100.00;100216.81;6117337;28;20230;-78
2024/04/04 15:25:04;;;;;;;1.73;1.37;;;;;;;12.72;100.00;100216.91;6097806;28;20547;-79
2024/04/04 15:28:25;;;;;;;3.77;2.20;;;;;;;12.63;100.00;100223.31;6120960;28;20231;-77